sensor_id;sensor_type;location;lat;lon;timestamp;P1;durP1;ratioP1;P2;durP2;ratioP2
54561;SDS011;40456;53.358;-1.486;2023-04-01T00:01:32;4.50;;;0.60;;
54561;SDS011;40456;53.358;-1.486;2023-04-01T00:03:58;3.45;;;0.85;;
54561;SDS011;40456;53.358;-1.486;2023-04-01T00:06:27;1.00;;;0.40;;
54561;SDS011;40456;53.358;-1.486;2023-04-01T00:08:53;1.55;;;0.60;;
54561;SDS011;40456;53.358;-1.486;2023-04-01T00:11:19;1.10;;;0.50;;
54561;SDS011;40456;53.358;-1.486;2023-04-01T00:13:46;0.88;;;0.40;;
54561;SDS011;40456;53.358;-1.486;2023-04-01T00:16:12;2.10;;;0.82;;
54561;SDS011;40456;53.358;-1.486;2023-04-01T00:18:38;1.48;;;0.57;;
54561;SDS011;40456;53.358;-1.486;2023-04-01T00:21:04;2.17;;;0.60;;
54561;SDS011;40456;53.358;-1.486;2023-04-01T00:23:30;3.67;;;0.70;;
54561;SDS011;40456;53.358;-1.486;2023-04-01T00:25:56;2.08;;;0.65;;
54561;SDS011;40456;53.358;-1.486;2023-04-01T00:28:21;0.88;;;0.57;;
54561;SDS011;40456;53.358;-1.486;2023-04-01T00:30:47;2.00;;;0.63;;
54561;SDS011;40456;53.358;-1.486;2023-04-01T00:33:13;0.93;;;0.35;;
54561;SDS011;40456;53.358;-1.486;2023-04-01T00:35:39;2.13;;;0.60;;
54561;SDS011;40456;53.358;-1.486;2023-04-01T00:38:05;0.55;;;0.50;;
54561;SDS011;40456;53.358;-1.486;2023-04-01T00:40:35;1.60;;;0.40;;
54561;SDS011;40456;53.358;-1.486;2023-04-01T00:43:03;2.47;;;0.75;;
54561;SDS011;40456;53.358;-1.486;2023-04-01T00:45:40;1.05;;;0.50;;
54561;SDS011;40456;53.358;-1.486;2023-04-01T00:48:12;1.67;;;0.60;;
54561;SDS011;40456;53.358;-1.486;2023-04-01T00:50:40;2.85;;;0.90;;
54561;SDS011;40456;53.358;-1.486;2023-04-01T00:53:08;1.00;;;0.50;;
54561;SDS011;40456;53.358;-1.486;2023-04-01T00:55:35;0.57;;;0.45;;
54561;SDS011;40456;53.358;-1.486;2023-04-01T00:58:03;1.50;;;0.60;;
54561;SDS011;40456;53.358;-1.486;2023-04-01T01:00:30;2.05;;;0.40;;
54561;SDS011;40456;53.358;-1.486;2023-04-01T01:02:58;0.57;;;0.38;;
54561;SDS011;40456;53.358;-1.486;2023-04-01T01:05:38;2.05;;;0.60;;
54561;SDS011;40456;53.358;-1.486;2023-04-01T01:08:25;0.77;;;0.40;;
54561;SDS011;40456;53.358;-1.486;2023-04-01T01:11:11;1.58;;;0.50;;
54561;SDS011;40456;53.358;-1.486;2023-04-01T01:16:26;0.68;;;0.60;;
54561;SDS011;40456;53.358;-1.486;2023-04-01T01:21:43;1.02;;;0.35;;
54561;SDS011;40456;53.358;-1.486;2023-04-01T01:37:54;0.77;;;0.40;;
54561;SDS011;40456;53.358;-1.486;2023-04-01T01:40:22;1.38;;;0.50;;
54561;SDS011;40456;53.358;-1.486;2023-04-01T01:42:48;0.65;;;0.30;;
54561;SDS011;40456;53.358;-1.486;2023-04-01T01:45:16;0.60;;;0.35;;
54561;SDS011;40456;53.358;-1.486;2023-04-01T01:47:44;0.45;;;0.45;;
54561;SDS011;40456;53.358;-1.486;2023-04-01T01:50:11;1.30;;;0.35;;
54561;SDS011;40456;53.358;-1.486;2023-04-01T01:52:36;0.93;;;0.32;;
54561;SDS011;40456;53.358;-1.486;2023-04-01T01:55:02;0.90;;;0.50;;
54561;SDS011;40456;53.358;-1.486;2023-04-01T01:57:31;1.55;;;0.50;;
54561;SDS011;40456;53.358;-1.486;2023-04-01T02:00:04;1.92;;;0.43;;
54561;SDS011;40456;53.358;-1.486;2023-04-01T02:02:39;1.08;;;0.40;;
54561;SDS011;40456;53.358;-1.486;2023-04-01T02:05:05;1.05;;;0.57;;
54561;SDS011;40456;53.358;-1.486;2023-04-01T02:07:33;0.88;;;0.50;;
54561;SDS011;40456;53.358;-1.486;2023-04-01T02:10:00;0.75;;;0.20;;
54561;SDS011;40456;53.358;-1.486;2023-04-01T02:12:26;0.30;;;0.28;;
54561;SDS011;40456;53.358;-1.486;2023-04-01T02:14:57;0.45;;;0.30;;
54561;SDS011;40456;53.358;-1.486;2023-04-01T02:17:27;0.68;;;0.22;;
54561;SDS011;40456;53.358;-1.486;2023-04-01T02:20:02;0.30;;;0.20;;
54561;SDS011;40456;53.358;-1.486;2023-04-01T02:22:39;0.95;;;0.40;;
54561;SDS011;40456;53.358;-1.486;2023-04-01T02:25:08;2.05;;;0.40;;
54561;SDS011;40456;53.358;-1.486;2023-04-01T02:27:36;0.77;;;0.40;;
54561;SDS011;40456;53.358;-1.486;2023-04-01T02:30:02;1.52;;;0.65;;
54561;SDS011;40456;53.358;-1.486;2023-04-01T02:32:28;1.40;;;0.47;;
54561;SDS011;40456;53.358;-1.486;2023-04-01T02:34:54;1.23;;;0.40;;
54561;SDS011;40456;53.358;-1.486;2023-04-01T02:37:20;1.50;;;0.43;;
54561;SDS011;40456;53.358;-1.486;2023-04-01T02:39:53;0.93;;;0.40;;
54561;SDS011;40456;53.358;-1.486;2023-04-01T02:42:20;0.93;;;0.40;;
54561;SDS011;40456;53.358;-1.486;2023-04-01T02:44:47;0.85;;;0.30;;
54561;SDS011;40456;53.358;-1.486;2023-04-01T02:47:12;1.48;;;0.43;;
54561;SDS011;40456;53.358;-1.486;2023-04-01T02:49:38;1.33;;;0.30;;
54561;SDS011;40456;53.358;-1.486;2023-04-01T02:52:03;0.57;;;0.40;;
54561;SDS011;40456;53.358;-1.486;2023-04-01T02:54:29;2.00;;;0.60;;
54561;SDS011;40456;53.358;-1.486;2023-04-01T02:56:55;0.77;;;0.38;;
54561;SDS011;40456;53.358;-1.486;2023-04-01T02:59:21;0.40;;;0.20;;
54561;SDS011;40456;53.358;-1.486;2023-04-01T03:01:46;3.25;;;0.55;;
54561;SDS011;40456;53.358;-1.486;2023-04-01T03:04:12;0.80;;;0.38;;
54561;SDS011;40456;53.358;-1.486;2023-04-01T03:06:38;1.73;;;0.30;;
54561;SDS011;40456;53.358;-1.486;2023-04-01T03:09:03;1.92;;;0.50;;
54561;SDS011;40456;53.358;-1.486;2023-04-01T03:11:29;0.60;;;0.30;;
54561;SDS011;40456;53.358;-1.486;2023-04-01T03:13:54;2.03;;;0.52;;
54561;SDS011;40456;53.358;-1.486;2023-04-01T03:16:20;1.20;;;0.60;;
54561;SDS011;40456;53.358;-1.486;2023-04-01T03:18:46;0.98;;;0.40;;
54561;SDS011;40456;53.358;-1.486;2023-04-01T03:23:44;0.90;;;0.60;;
54561;SDS011;40456;53.358;-1.486;2023-04-01T03:26:09;0.90;;;0.40;;
54561;SDS011;40456;53.358;-1.486;2023-04-01T03:28:35;1.48;;;0.50;;
54561;SDS011;40456;53.358;-1.486;2023-04-01T03:31:01;1.13;;;0.50;;
54561;SDS011;40456;53.358;-1.486;2023-04-01T03:33:26;2.88;;;0.60;;
54561;SDS011;40456;53.358;-1.486;2023-04-01T03:35:52;0.68;;;0.35;;
54561;SDS011;40456;53.358;-1.486;2023-04-01T03:38:17;1.27;;;0.60;;
54561;SDS011;40456;53.358;-1.486;2023-04-01T03:40:43;0.40;;;0.30;;
54561;SDS011;40456;53.358;-1.486;2023-04-01T03:43:09;1.58;;;0.50;;
54561;SDS011;40456;53.358;-1.486;2023-04-01T03:45:35;1.30;;;0.73;;
54561;SDS011;40456;53.358;-1.486;2023-04-01T03:48:00;2.08;;;0.40;;
54561;SDS011;40456;53.358;-1.486;2023-04-01T03:50:26;2.05;;;0.40;;
54561;SDS011;40456;53.358;-1.486;2023-04-01T03:52:51;0.88;;;0.50;;
54561;SDS011;40456;53.358;-1.486;2023-04-01T03:55:17;2.60;;;0.20;;
54561;SDS011;40456;53.358;-1.486;2023-04-01T03:57:43;0.90;;;0.30;;
54561;SDS011;40456;53.358;-1.486;2023-04-01T04:00:08;3.60;;;0.50;;
54561;SDS011;40456;53.358;-1.486;2023-04-01T04:02:34;1.60;;;0.60;;
54561;SDS011;40456;53.358;-1.486;2023-04-01T04:05:00;0.70;;;0.40;;
54561;SDS011;40456;53.358;-1.486;2023-04-01T04:07:26;0.60;;;0.35;;
54561;SDS011;40456;53.358;-1.486;2023-04-01T04:09:51;0.70;;;0.28;;
54561;SDS011;40456;53.358;-1.486;2023-04-01T04:12:17;1.75;;;0.50;;
54561;SDS011;40456;53.358;-1.486;2023-04-01T04:14:42;0.43;;;0.22;;
54561;SDS011;40456;53.358;-1.486;2023-04-01T04:17:09;1.50;;;0.30;;
54561;SDS011;40456;53.358;-1.486;2023-04-01T04:19:40;1.23;;;0.40;;
54561;SDS011;40456;53.358;-1.486;2023-04-01T04:22:06;0.90;;;0.40;;
54561;SDS011;40456;53.358;-1.486;2023-04-01T04:24:31;0.75;;;0.40;;
54561;SDS011;40456;53.358;-1.486;2023-04-01T04:26:59;0.85;;;0.50;;
54561;SDS011;40456;53.358;-1.486;2023-04-01T04:29:24;0.40;;;0.20;;
54561;SDS011;40456;53.358;-1.486;2023-04-01T04:31:50;2.38;;;0.40;;
54561;SDS011;40456;53.358;-1.486;2023-04-01T04:34:15;0.50;;;0.30;;
54561;SDS011;40456;53.358;-1.486;2023-04-01T04:36:40;0.93;;;0.32;;
54561;SDS011;40456;53.358;-1.486;2023-04-01T04:39:06;0.80;;;0.30;;
54561;SDS011;40456;53.358;-1.486;2023-04-01T04:41:31;1.65;;;0.40;;
54561;SDS011;40456;53.358;-1.486;2023-04-01T04:43:57;1.00;;;0.30;;
54561;SDS011;40456;53.358;-1.486;2023-04-01T04:46:23;2.05;;;0.85;;
54561;SDS011;40456;53.358;-1.486;2023-04-01T04:48:49;1.75;;;0.40;;
54561;SDS011;40456;53.358;-1.486;2023-04-01T04:51:15;0.30;;;0.20;;
54561;SDS011;40456;53.358;-1.486;2023-04-01T04:53:41;2.83;;;0.45;;
54561;SDS011;40456;53.358;-1.486;2023-04-01T04:56:07;1.08;;;0.30;;
54561;SDS011;40456;53.358;-1.486;2023-04-01T04:58:32;0.60;;;0.40;;
54561;SDS011;40456;53.358;-1.486;2023-04-01T05:00:58;0.43;;;0.40;;
54561;SDS011;40456;53.358;-1.486;2023-04-01T05:03:24;2.72;;;0.47;;
54561;SDS011;40456;53.358;-1.486;2023-04-01T05:05:53;1.92;;;0.35;;
54561;SDS011;40456;53.358;-1.486;2023-04-01T05:08:18;1.27;;;0.40;;
54561;SDS011;40456;53.358;-1.486;2023-04-01T05:10:44;1.50;;;0.25;;
54561;SDS011;40456;53.358;-1.486;2023-04-01T05:13:10;1.77;;;0.40;;
54561;SDS011;40456;53.358;-1.486;2023-04-01T05:15:36;1.20;;;0.32;;
54561;SDS011;40456;53.358;-1.486;2023-04-01T05:18:02;1.00;;;0.28;;
54561;SDS011;40456;53.358;-1.486;2023-04-01T05:20:28;2.63;;;0.30;;
54561;SDS011;40456;53.358;-1.486;2023-04-01T05:22:57;2.30;;;0.47;;
54561;SDS011;40456;53.358;-1.486;2023-04-01T05:25:22;0.10;;;0.10;;
54561;SDS011;40456;53.358;-1.486;2023-04-01T05:27:48;1.35;;;0.50;;
54561;SDS011;40456;53.358;-1.486;2023-04-01T05:30:13;0.80;;;0.40;;
54561;SDS011;40456;53.358;-1.486;2023-04-01T05:32:39;1.40;;;0.25;;
54561;SDS011;40456;53.358;-1.486;2023-04-01T05:35:04;0.85;;;0.40;;
54561;SDS011;40456;53.358;-1.486;2023-04-01T05:37:30;0.75;;;0.38;;
54561;SDS011;40456;53.358;-1.486;2023-04-01T05:39:56;0.70;;;0.35;;
54561;SDS011;40456;53.358;-1.486;2023-04-01T05:42:23;0.90;;;0.40;;
54561;SDS011;40456;53.358;-1.486;2023-04-01T05:44:49;0.98;;;0.45;;
54561;SDS011;40456;53.358;-1.486;2023-04-01T05:47:14;1.75;;;0.40;;
54561;SDS011;40456;53.358;-1.486;2023-04-01T05:49:39;1.00;;;0.50;;
54561;SDS011;40456;53.358;-1.486;2023-04-01T05:52:05;0.57;;;0.30;;
54561;SDS011;40456;53.358;-1.486;2023-04-01T05:54:30;0.75;;;0.38;;
54561;SDS011;40456;53.358;-1.486;2023-04-01T05:56:55;1.48;;;0.55;;
54561;SDS011;40456;53.358;-1.486;2023-04-01T05:59:21;5.68;;;0.57;;
54561;SDS011;40456;53.358;-1.486;2023-04-01T06:01:46;0.73;;;0.38;;
54561;SDS011;40456;53.358;-1.486;2023-04-01T06:04:13;1.15;;;0.40;;
54561;SDS011;40456;53.358;-1.486;2023-04-01T06:06:40;2.30;;;0.50;;
54561;SDS011;40456;53.358;-1.486;2023-04-01T06:09:16;1.38;;;0.50;;
54561;SDS011;40456;53.358;-1.486;2023-04-01T06:38:37;0.85;;;0.40;;
54561;SDS011;40456;53.358;-1.486;2023-04-01T06:41:21;1.40;;;0.40;;
54561;SDS011;40456;53.358;-1.486;2023-04-01T06:46:45;0.32;;;0.30;;
54561;SDS011;40456;53.358;-1.486;2023-04-01T06:52:26;1.65;;;0.52;;
54561;SDS011;40456;53.358;-1.486;2023-04-01T06:55:02;2.10;;;0.60;;
54561;SDS011;40456;53.358;-1.486;2023-04-01T06:57:39;1.48;;;0.55;;
54561;SDS011;40456;53.358;-1.486;2023-04-01T07:00:14;1.25;;;0.40;;
54561;SDS011;40456;53.358;-1.486;2023-04-01T07:03:02;10.20;;;0.57;;
54561;SDS011;40456;53.358;-1.486;2023-04-01T07:05:32;0.88;;;0.45;;
54561;SDS011;40456;53.358;-1.486;2023-04-01T07:07:58;1.13;;;0.38;;
54561;SDS011;40456;53.358;-1.486;2023-04-01T07:10:43;0.95;;;0.35;;
54561;SDS011;40456;53.358;-1.486;2023-04-01T07:13:18;0.47;;;0.17;;
54561;SDS011;40456;53.358;-1.486;2023-04-01T07:18:48;1.45;;;0.57;;
54561;SDS011;40456;53.358;-1.486;2023-04-01T07:21:22;1.42;;;0.50;;
54561;SDS011;40456;53.358;-1.486;2023-04-01T07:23:56;1.98;;;0.63;;
54561;SDS011;40456;53.358;-1.486;2023-04-01T07:26:26;2.90;;;0.40;;
54561;SDS011;40456;53.358;-1.486;2023-04-01T07:28:52;0.52;;;0.30;;
54561;SDS011;40456;53.358;-1.486;2023-04-01T07:36:31;3.15;;;0.40;;
54561;SDS011;40456;53.358;-1.486;2023-04-01T07:41:49;1.02;;;0.40;;
54561;SDS011;40456;53.358;-1.486;2023-04-01T07:47:24;1.27;;;0.52;;
54561;SDS011;40456;53.358;-1.486;2023-04-01T07:55:44;0.80;;;0.38;;
54561;SDS011;40456;53.358;-1.486;2023-04-01T08:00:55;3.35;;;0.70;;
54561;SDS011;40456;53.358;-1.486;2023-04-01T08:11:29;2.63;;;1.30;;
54561;SDS011;40456;53.358;-1.486;2023-04-01T08:14:11;1.45;;;1.00;;
54561;SDS011;40456;53.358;-1.486;2023-04-01T08:17:02;1.92;;;0.80;;
54561;SDS011;40456;53.358;-1.486;2023-04-01T08:22:10;2.58;;;0.80;;
54561;SDS011;40456;53.358;-1.486;2023-04-01T08:24:42;1.85;;;0.60;;
54561;SDS011;40456;53.358;-1.486;2023-04-01T08:27:21;1.00;;;0.60;;
54561;SDS011;40456;53.358;-1.486;2023-04-01T08:30:33;1.80;;;0.50;;
54561;SDS011;40456;53.358;-1.486;2023-04-01T08:32:44;1.53;;;0.63;;
54561;SDS011;40456;53.358;-1.486;2023-04-01T08:35:18;1.27;;;0.60;;
54561;SDS011;40456;53.358;-1.486;2023-04-01T08:37:50;1.25;;;0.60;;
54561;SDS011;40456;53.358;-1.486;2023-04-01T08:43:16;1.42;;;0.65;;
54561;SDS011;40456;53.358;-1.486;2023-04-01T08:49:20;1.10;;;0.40;;
54561;SDS011;40456;53.358;-1.486;2023-04-01T08:52:15;1.00;;;0.40;;
54561;SDS011;40456;53.358;-1.486;2023-04-01T09:14:37;1.00;;;0.47;;
54561;SDS011;40456;53.358;-1.486;2023-04-01T09:22:46;0.93;;;0.40;;
54561;SDS011;40456;53.358;-1.486;2023-04-01T09:28:19;1.20;;;0.38;;
54561;SDS011;40456;53.358;-1.486;2023-04-01T09:33:38;0.85;;;0.50;;
54561;SDS011;40456;53.358;-1.486;2023-04-01T09:39:19;0.95;;;0.40;;
54561;SDS011;40456;53.358;-1.486;2023-04-01T09:44:34;1.90;;;0.57;;
54561;SDS011;40456;53.358;-1.486;2023-04-01T09:49:59;1.08;;;0.30;;
54561;SDS011;40456;53.358;-1.486;2023-04-01T09:55:21;1.27;;;0.50;;
54561;SDS011;40456;53.358;-1.486;2023-04-01T10:13:03;0.30;;;0.30;;
54561;SDS011;40456;53.358;-1.486;2023-04-01T10:21:12;4.83;;;0.87;;
54561;SDS011;40456;53.358;-1.486;2023-04-01T10:26:27;0.50;;;0.30;;
54561;SDS011;40456;53.358;-1.486;2023-04-01T10:32:00;3.30;;;0.70;;
54561;SDS011;40456;53.358;-1.486;2023-04-01T10:34:42;4.95;;;0.75;;
54561;SDS011;40456;53.358;-1.486;2023-04-01T10:37:22;2.92;;;0.32;;
54561;SDS011;40456;53.358;-1.486;2023-04-01T10:43:02;3.50;;;0.98;;
54561;SDS011;40456;53.358;-1.486;2023-04-01T10:54:32;2.78;;;0.57;;
54561;SDS011;40456;53.358;-1.486;2023-04-01T11:20:09;4.57;;;0.57;;
54561;SDS011;40456;53.358;-1.486;2023-04-01T11:55:38;0.57;;;0.57;;
54561;SDS011;40456;53.358;-1.486;2023-04-01T12:01:01;2.50;;;0.45;;
54561;SDS011;40456;53.358;-1.486;2023-04-01T12:37:44;5.68;;;0.63;;
54561;SDS011;40456;53.358;-1.486;2023-04-01T12:57:48;5.72;;;0.68;;
54561;SDS011;40456;53.358;-1.486;2023-04-01T13:05:27;4.72;;;0.73;;
54561;SDS011;40456;53.358;-1.486;2023-04-01T13:16:27;2.35;;;0.88;;
54561;SDS011;40456;53.358;-1.486;2023-04-01T13:22:00;3.22;;;0.52;;
54561;SDS011;40456;53.358;-1.486;2023-04-01T13:24:51;2.00;;;0.60;;
54561;SDS011;40456;53.358;-1.486;2023-04-01T13:38:12;5.85;;;0.90;;
54561;SDS011;40456;53.358;-1.486;2023-04-01T13:43:24;2.55;;;0.60;;
54561;SDS011;40456;53.358;-1.486;2023-04-01T13:56:33;3.80;;;0.63;;
54561;SDS011;40456;53.358;-1.486;2023-04-01T14:04:45;1.88;;;0.47;;
54561;SDS011;40456;53.358;-1.486;2023-04-01T14:12:39;0.60;;;0.35;;
54561;SDS011;40456;53.358;-1.486;2023-04-01T14:18:23;0.65;;;0.40;;
54561;SDS011;40456;53.358;-1.486;2023-04-01T14:29:46;0.75;;;0.40;;
54561;SDS011;40456;53.358;-1.486;2023-04-01T14:49:48;0.82;;;0.45;;
54561;SDS011;40456;53.358;-1.486;2023-04-01T14:52:23;2.55;;;0.65;;
54561;SDS011;40456;53.358;-1.486;2023-04-01T14:54:52;1.08;;;0.43;;
54561;SDS011;40456;53.358;-1.486;2023-04-01T14:57:28;1.10;;;0.50;;
54561;SDS011;40456;53.358;-1.486;2023-04-01T15:00:12;0.28;;;0.28;;
54561;SDS011;40456;53.358;-1.486;2023-04-01T15:05:35;1.85;;;0.68;;
54561;SDS011;40456;53.358;-1.486;2023-04-01T15:14:08;2.47;;;0.52;;
54561;SDS011;40456;53.358;-1.486;2023-04-01T15:19:34;1.05;;;0.50;;
54561;SDS011;40456;53.358;-1.486;2023-04-01T15:25:00;0.75;;;0.55;;
54561;SDS011;40456;53.358;-1.486;2023-04-01T15:33:01;1.25;;;0.60;;
54561;SDS011;40456;53.358;-1.486;2023-04-01T15:35:37;1.23;;;0.60;;
54561;SDS011;40456;53.358;-1.486;2023-04-01T15:40:43;2.45;;;0.50;;
54561;SDS011;40456;53.358;-1.486;2023-04-01T15:43:15;1.77;;;0.50;;
54561;SDS011;40456;53.358;-1.486;2023-04-01T15:48:46;4.97;;;0.70;;
54561;SDS011;40456;53.358;-1.486;2023-04-01T15:54:12;4.63;;;0.63;;
54561;SDS011;40456;53.358;-1.486;2023-04-01T15:57:03;5.53;;;0.80;;
54561;SDS011;40456;53.358;-1.486;2023-04-01T15:59:47;4.15;;;0.60;;
54561;SDS011;40456;53.358;-1.486;2023-04-01T16:23:57;3.22;;;0.85;;
54561;SDS011;40456;53.358;-1.486;2023-04-01T16:26:48;3.47;;;0.88;;
54561;SDS011;40456;53.358;-1.486;2023-04-01T16:29:24;1.42;;;0.75;;
54561;SDS011;40456;53.358;-1.486;2023-04-01T16:34:46;3.83;;;0.80;;
54561;SDS011;40456;53.358;-1.486;2023-04-01T16:37:29;1.98;;;0.90;;
54561;SDS011;40456;53.358;-1.486;2023-04-01T16:40:15;4.35;;;1.02;;
54561;SDS011;40456;53.358;-1.486;2023-04-01T16:46:27;5.05;;;1.30;;
54561;SDS011;40456;53.358;-1.486;2023-04-01T16:51:38;3.70;;;1.20;;
54561;SDS011;40456;53.358;-1.486;2023-04-01T16:57:19;7.32;;;1.27;;
54561;SDS011;40456;53.358;-1.486;2023-04-01T16:59:53;3.83;;;1.30;;
54561;SDS011;40456;53.358;-1.486;2023-04-01T17:02:30;5.25;;;1.23;;
54561;SDS011;40456;53.358;-1.486;2023-04-01T17:05:06;4.35;;;0.90;;
54561;SDS011;40456;53.358;-1.486;2023-04-01T17:07:55;3.80;;;1.05;;
54561;SDS011;40456;53.358;-1.486;2023-04-01T17:16:14;2.92;;;1.25;;
54561;SDS011;40456;53.358;-1.486;2023-04-01T17:27:12;5.43;;;1.20;;
54561;SDS011;40456;53.358;-1.486;2023-04-01T17:32:39;1.25;;;0.80;;
54561;SDS011;40456;53.358;-1.486;2023-04-01T17:35:32;2.55;;;1.15;;
54561;SDS011;40456;53.358;-1.486;2023-04-01T17:41:08;2.67;;;1.02;;
54561;SDS011;40456;53.358;-1.486;2023-04-01T17:46:21;4.47;;;1.00;;
54561;SDS011;40456;53.358;-1.486;2023-04-01T17:51:59;2.78;;;1.05;;
54561;SDS011;40456;53.358;-1.486;2023-04-01T17:55:15;3.30;;;1.10;;
54561;SDS011;40456;53.358;-1.486;2023-04-01T18:03:36;2.50;;;0.90;;
54561;SDS011;40456;53.358;-1.486;2023-04-01T18:06:29;2.10;;;0.82;;
54561;SDS011;40456;53.358;-1.486;2023-04-01T18:08:58;1.70;;;0.98;;
54561;SDS011;40456;53.358;-1.486;2023-04-01T18:13:55;4.07;;;0.95;;
54561;SDS011;40456;53.358;-1.486;2023-04-01T18:21:55;4.28;;;1.23;;
54561;SDS011;40456;53.358;-1.486;2023-04-01T18:24:44;2.22;;;1.00;;
54561;SDS011;40456;53.358;-1.486;2023-04-01T18:27:22;1.73;;;0.80;;
54561;SDS011;40456;53.358;-1.486;2023-04-01T18:29:51;2.65;;;0.77;;
54561;SDS011;40456;53.358;-1.486;2023-04-01T18:32:24;3.50;;;1.05;;
54561;SDS011;40456;53.358;-1.486;2023-04-01T18:37:34;1.85;;;0.88;;
54561;SDS011;40456;53.358;-1.486;2023-04-01T18:54:00;2.30;;;0.93;;
54561;SDS011;40456;53.358;-1.486;2023-04-01T18:56:34;2.45;;;0.75;;
54561;SDS011;40456;53.358;-1.486;2023-04-01T18:59:21;8.75;;;1.63;;
54561;SDS011;40456;53.358;-1.486;2023-04-01T19:01:57;2.72;;;1.00;;
54561;SDS011;40456;53.358;-1.486;2023-04-01T19:09:45;1.73;;;1.00;;
54561;SDS011;40456;53.358;-1.486;2023-04-01T19:12:18;3.33;;;0.85;;
54561;SDS011;40456;53.358;-1.486;2023-04-01T19:17:43;1.10;;;0.80;;
54561;SDS011;40456;53.358;-1.486;2023-04-01T19:20:25;5.20;;;1.02;;
54561;SDS011;40456;53.358;-1.486;2023-04-01T19:25:58;1.35;;;0.70;;
54561;SDS011;40456;53.358;-1.486;2023-04-01T19:36:58;1.92;;;0.98;;
54561;SDS011;40456;53.358;-1.486;2023-04-01T19:52:41;2.58;;;0.95;;
54561;SDS011;40456;53.358;-1.486;2023-04-01T19:57:57;1.20;;;1.10;;
54561;SDS011;40456;53.358;-1.486;2023-04-01T20:00:50;1.63;;;1.00;;
54561;SDS011;40456;53.358;-1.486;2023-04-01T20:11:33;5.55;;;1.17;;
54561;SDS011;40456;53.358;-1.486;2023-04-01T20:16:49;2.55;;;1.13;;
54561;SDS011;40456;53.358;-1.486;2023-04-01T20:19:21;2.42;;;0.90;;
54561;SDS011;40456;53.358;-1.486;2023-04-01T20:21:56;5.22;;;1.02;;
54561;SDS011;40456;53.358;-1.486;2023-04-01T20:24:24;4.75;;;1.70;;
54561;SDS011;40456;53.358;-1.486;2023-04-01T20:27:15;2.08;;;0.98;;
54561;SDS011;40456;53.358;-1.486;2023-04-01T20:32:34;2.45;;;1.10;;
54561;SDS011;40456;53.358;-1.486;2023-04-01T20:35:13;2.40;;;1.23;;
54561;SDS011;40456;53.358;-1.486;2023-04-01T20:40:40;2.10;;;1.20;;
54561;SDS011;40456;53.358;-1.486;2023-04-01T20:43:23;2.70;;;1.17;;
54561;SDS011;40456;53.358;-1.486;2023-04-01T20:51:25;2.45;;;0.98;;
54561;SDS011;40456;53.358;-1.486;2023-04-01T20:57:00;3.27;;;1.10;;
54561;SDS011;40456;53.358;-1.486;2023-04-01T20:59:38;1.52;;;1.00;;
54561;SDS011;40456;53.358;-1.486;2023-04-01T21:20:21;1.48;;;1.02;;
54561;SDS011;40456;53.358;-1.486;2023-04-01T21:33:32;2.42;;;0.85;;
54561;SDS011;40456;53.358;-1.486;2023-04-01T21:44:36;1.40;;;0.80;;
54561;SDS011;40456;53.358;-1.486;2023-04-01T21:55:28;1.13;;;0.90;;
54561;SDS011;40456;53.358;-1.486;2023-04-01T22:01:10;1.23;;;0.70;;
54561;SDS011;40456;53.358;-1.486;2023-04-01T22:07:11;1.98;;;1.17;;
54561;SDS011;40456;53.358;-1.486;2023-04-01T22:17:51;1.50;;;1.10;;
54561;SDS011;40456;53.358;-1.486;2023-04-01T22:20:37;2.50;;;1.00;;
54561;SDS011;40456;53.358;-1.486;2023-04-01T22:23:17;1.95;;;0.80;;
54561;SDS011;40456;53.358;-1.486;2023-04-01T22:31:48;1.98;;;0.80;;
54561;SDS011;40456;53.358;-1.486;2023-04-01T22:37:18;2.80;;;1.10;;
54561;SDS011;40456;53.358;-1.486;2023-04-01T22:45:50;3.60;;;1.08;;
54561;SDS011;40456;53.358;-1.486;2023-04-01T22:51:21;1.60;;;0.80;;
54561;SDS011;40456;53.358;-1.486;2023-04-01T22:53:57;2.35;;;0.85;;
54561;SDS011;40456;53.358;-1.486;2023-04-01T22:56:33;3.58;;;1.02;;
54561;SDS011;40456;53.358;-1.486;2023-04-01T23:01:51;7.03;;;1.10;;
54561;SDS011;40456;53.358;-1.486;2023-04-01T23:04:21;1.25;;;0.70;;
54561;SDS011;40456;53.358;-1.486;2023-04-01T23:06:52;2.70;;;0.93;;
54561;SDS011;40456;53.358;-1.486;2023-04-01T23:09:20;4.10;;;1.08;;
54561;SDS011;40456;53.358;-1.486;2023-04-01T23:11:49;2.53;;;0.70;;
54561;SDS011;40456;53.358;-1.486;2023-04-01T23:17:01;2.85;;;1.00;;
54561;SDS011;40456;53.358;-1.486;2023-04-01T23:19:34;3.72;;;0.80;;
54561;SDS011;40456;53.358;-1.486;2023-04-01T23:24:31;4.35;;;1.02;;
54561;SDS011;40456;53.358;-1.486;2023-04-01T23:27:05;2.78;;;1.02;;
54561;SDS011;40456;53.358;-1.486;2023-04-01T23:29:35;5.45;;;0.73;;
54561;SDS011;40456;53.358;-1.486;2023-04-01T23:32:01;3.25;;;1.00;;
54561;SDS011;40456;53.358;-1.486;2023-04-01T23:34:29;3.40;;;0.90;;
54561;SDS011;40456;53.358;-1.486;2023-04-01T23:36:57;2.85;;;1.10;;
54561;SDS011;40456;53.358;-1.486;2023-04-01T23:39:35;2.90;;;0.85;;
54561;SDS011;40456;53.358;-1.486;2023-04-01T23:42:03;1.65;;;1.05;;
54561;SDS011;40456;53.358;-1.486;2023-04-01T23:44:31;1.17;;;0.98;;
54561;SDS011;40456;53.358;-1.486;2023-04-01T23:46:57;2.70;;;1.10;;
54561;SDS011;40456;53.358;-1.486;2023-04-01T23:49:25;3.88;;;1.42;;
54561;SDS011;40456;53.358;-1.486;2023-04-01T23:51:58;2.40;;;1.30;;
54561;SDS011;40456;53.358;-1.486;2023-04-01T23:54:34;4.07;;;1.20;;
54561;SDS011;40456;53.358;-1.486;2023-04-01T23:57:10;2.97;;;1.23;;
54561;SDS011;40456;53.358;-1.486;2023-04-01T23:59:38;0.73;;;0.70;;
